Time;durP1;ratioP1;P1;durP2;ratioP2;P2;SDS_P1;SDS_P2;PMS_P1;PMS_P2;Temp;Humidity;BMP_temperature;BMP_pressure;BME280_temperature;BME280_humidity;BME280_pressure;Samples;Min_cycle;Max_cycle;Signal;HPM_P1;HPM_P2
2022/03/13 00:01:03;;;;;;;14.80;9.93;;;;;;;10.66;57.22;101422.66;5011670;28;20402;-70
2022/03/13 00:03:32;;;;;;;14.68;10.07;;;;;;;10.66;57.33;101420.03;5013447;28;20032;-70
2022/03/13 00:05:57;;;;;;;13.38;10.00;;;;;;;10.67;57.11;101420.88;5012917;28;20030;-70
2022/03/13 00:08:32;;;;;;;12.73;9.30;;;;;;;10.65;57.50;101420.97;5011154;28;20037;-72
2022/03/13 00:11:08;;;;;;;13.07;9.88;;;;;;;10.66;57.00;101422.66;5011832;28;20075;-71
2022/03/13 00:13:41;;;;;;;13.18;9.95;;;;;;;10.64;57.40;101414.03;5012496;28;20033;-72
2022/03/13 00:16:08;;;;;;;11.85;9.50;;;;;;;10.65;57.44;101413.06;5006931;28;20038;-73
2022/03/13 00:18:44;;;;;;;12.95;8.85;;;;;;;10.64;57.37;101413.19;5003655;28;20033;-73
2022/03/13 00:21:10;;;;;;;12.35;9.55;;;;;;;10.63;57.47;101416.75;5019762;28;20030;-70
2022/03/13 00:23:36;;;;;;;11.70;9.50;;;;;;;10.62;57.86;101422.97;5013214;28;20033;-70
2022/03/13 00:26:02;;;;;;;13.13;9.73;;;;;;;10.59;57.99;101415.28;5028413;28;20022;-70
2022/03/13 00:28:28;;;;;;;14.00;9.50;;;;;;;10.59;57.50;101410.00;5010970;28;20029;-70
2022/03/13 00:30:54;;;;;;;12.27;9.48;;;;;;;10.56;58.10;101405.78;5012240;28;20026;-70
2022/03/13 00:33:20;;;;;;;16.80;9.82;;;;;;;10.58;57.83;101398.63;5009620;28;20067;-70
2022/03/13 00:35:45;;;;;;;12.07;9.50;;;;;;;10.56;58.19;101395.25;4999783;28;20096;-70
2022/03/13 00:38:11;;;;;;;10.95;9.00;;;;;;;10.54;58.61;101380.53;5011956;28;20022;-70
2022/03/13 00:40:37;;;;;;;12.93;9.30;;;;;;;10.54;58.23;101386.63;5010559;28;20106;-70
2022/03/13 00:43:03;;;;;;;11.00;9.07;;;;;;;10.53;57.66;101392.84;5009994;28;20109;-70
2022/03/13 00:45:29;;;;;;;12.65;9.88;;;;;;;10.51;58.58;101384.19;5011806;28;20022;-70
2022/03/13 00:47:54;;;;;;;12.00;9.30;;;;;;;10.51;58.20;101392.09;5011607;28;20022;-70
2022/03/13 00:50:20;;;;;;;12.48;9.70;;;;;;;10.53;57.44;101392.84;5008685;28;20713;-70
2022/03/13 00:52:45;;;;;;;12.75;9.73;;;;;;;10.51;58.46;101392.09;5003938;28;20034;-70
2022/03/13 00:55:11;;;;;;;12.63;9.20;;;;;;;10.49;58.06;101388.72;4994152;28;20030;-70
2022/03/13 00:57:37;;;;;;;13.77;9.80;;;;;;;10.48;58.21;101386.19;4990591;28;20042;-70
2022/03/13 01:00:04;;;;;;;13.40;9.80;;;;;;;10.46;58.21;101377.56;4991535;28;20045;-70
2022/03/13 01:02:29;;;;;;;12.00;9.05;;;;;;;10.44;58.42;101375.03;4990856;28;20027;-70
2022/03/13 01:04:55;;;;;;;13.10;9.35;;;;;;;10.44;58.22;101375.03;4992356;28;20026;-70
2022/03/13 01:07:20;;;;;;;11.93;9.20;;;;;;;10.40;58.64;101373.50;5001330;28;20479;-70
2022/03/13 01:09:46;;;;;;;13.30;9.07;;;;;;;10.42;58.17;101374.28;5010955;28;20100;-73
2022/03/13 01:12:11;;;;;;;12.45;8.85;;;;;;;10.39;59.02;101366.56;5007918;28;20029;-73
2022/03/13 01:14:37;;;;;;;11.02;8.20;;;;;;;10.39;58.66;101366.56;4993984;28;20491;-73
2022/03/13 01:17:08;;;;;;;11.70;8.85;;;;;;;10.39;58.94;101361.28;4991622;28;20031;-72
2022/03/13 01:19:33;;;;;;;10.57;8.73;;;;;;;10.38;58.57;101359.59;4992519;28;20027;-73
2022/03/13 01:21:59;;;;;;;10.45;8.65;;;;;;;10.33;59.62;101361.69;4991974;28;20034;-72
2022/03/13 01:24:26;;;;;;;11.68;8.57;;;;;;;10.32;59.16;101354.75;4995334;28;20017;-72
2022/03/13 01:26:54;;;;;;;12.40;9.30;;;;;;;10.27;59.73;101349.78;5011571;28;20540;-73
2022/03/13 01:29:19;;;;;;;11.95;8.38;;;;;;;10.26;59.53;101344.63;5009435;28;20030;-73
2022/03/13 01:31:47;;;;;;;10.35;8.52;;;;;;;10.24;59.89;101346.53;5009899;28;20037;-72
2022/03/13 01:34:14;;;;;;;12.50;8.73;;;;;;;10.21;59.60;101349.34;4991301;28;20030;-73
2022/03/13 01:36:39;;;;;;;13.18;9.32;;;;;;;10.20;60.00;101345.00;5000660;28;20053;-72
2022/03/13 01:39:09;;;;;;;11.65;9.18;;;;;;;10.18;59.41;101346.88;5008138;28;20068;-72
2022/03/13 01:41:35;;;;;;;14.68;8.93;;;;;;;10.15;59.93;101336.56;4992183;28;20023;-72
2022/03/13 01:44:01;;;;;;;16.60;9.80;;;;;;;10.12;59.95;101332.34;4994503;28;20076;-72
2022/03/13 01:46:27;;;;;;;12.15;9.05;;;;;;;10.09;59.98;101321.19;5007600;28;20033;-73
2022/03/13 01:48:58;;;;;;;12.40;9.20;;;;;;;10.06;60.71;101330.13;5000224;28;20030;-73
2022/03/13 01:51:25;;;;;;;10.80;8.15;;;;;;;10.02;60.55;101318.97;5021162;28;20121;-72
2022/03/13 01:53:55;;;;;;;11.15;8.45;;;;;;;9.99;60.65;101320.91;4997648;28;20109;-73
2022/03/13 01:56:21;;;;;;;11.23;8.43;;;;;;;9.97;60.78;101315.75;5000305;28;20057;-72
2022/03/13 01:58:53;;;;;;;11.38;8.13;;;;;;;9.95;60.73;101312.38;4989751;28;20034;-72
2022/03/13 02:01:20;;;;;;;10.77;8.43;;;;;;;9.93;61.03;101305.53;4992546;28;20104;-72
2022/03/13 02:03:46;;;;;;;9.63;7.93;;;;;;;9.88;61.31;101308.47;4991129;28;20387;-73
2022/03/13 02:06:12;;;;;;;10.95;8.13;;;;;;;9.87;61.18;101312.03;4990551;28;20030;-71
2022/03/13 02:08:38;;;;;;;10.10;7.55;;;;;;;9.83;61.46;101315.78;5008337;28;20025;-71
2022/03/13 02:11:05;;;;;;;11.57;8.13;;;;;;;9.80;61.58;101310.72;4990021;28;20023;-71
2022/03/13 02:13:34;;;;;;;10.40;7.70;;;;;;;9.79;61.63;101310.84;4990411;28;20768;-71
2022/03/13 02:16:01;;;;;;;9.93;8.00;;;;;;;9.77;61.36;101310.94;4991231;28;20034;-71
2022/03/13 02:18:26;;;;;;;10.27;7.60;;;;;;;9.74;61.77;101311.97;4998398;28;20027;-71
2022/03/13 02:20:52;;;;;;;12.40;8.52;;;;;;;9.72;61.89;101305.97;4990526;28;20045;-71
2022/03/13 02:23:28;;;;;;;11.48;8.35;;;;;;;9.73;61.48;101312.06;4997045;28;20553;-71
2022/03/13 02:25:59;;;;;;;9.20;7.72;;;;;;;9.71;62.14;101327.09;4991771;28;20069;-71
2022/03/13 02:28:27;;;;;;;10.00;8.13;;;;;;;9.69;62.34;101321.09;4991551;28;20584;-71
2022/03/13 02:30:57;;;;;;;10.48;8.20;;;;;;;9.67;62.18;101320.34;4993898;28;20384;-72
2022/03/13 02:33:23;;;;;;;10.82;8.68;;;;;;;9.65;62.09;101324.84;4990458;28;20026;-72
2022/03/13 02:36:03;;;;;;;14.23;9.57;;;;;;;9.63;62.35;101329.34;4989353;28;20042;-72
2022/03/13 02:38:29;;;;;;;14.57;9.57;;;;;;;9.59;62.42;101315.53;4989541;28;20072;-72
2022/03/13 02:40:56;;;;;;;12.25;9.88;;;;;;;9.58;62.19;101318.25;4989411;28;20058;-72
2022/03/13 02:43:22;;;;;;;11.70;9.73;;;;;;;9.57;62.56;101313.94;4993136;28;20037;-72
2022/03/13 02:45:49;;;;;;;12.32;9.70;;;;;;;9.56;62.44;101309.63;4994419;28;20490;-72
2022/03/13 02:48:16;;;;;;;13.18;10.00;;;;;;;9.55;62.54;101306.16;4988969;28;20343;-71
2022/03/13 02:50:41;;;;;;;14.52;9.88;;;;;;;9.55;63.23;101313.19;4989710;28;20026;-73
2022/03/13 02:53:08;;;;;;;13.77;9.75;;;;;;;9.53;64.08;101307.19;5008763;28;20045;-72
2022/03/13 02:55:34;;;;;;;12.32;10.05;;;;;;;9.51;64.42;101309.06;5003985;28;20044;-71
2022/03/13 02:57:59;;;;;;;14.30;10.70;;;;;;;9.50;64.29;101307.41;4996938;28;20018;-71
2022/03/13 03:00:50;;;;;;;13.43;10.75;;;;;;;9.51;64.03;101304.66;4989031;28;20035;-71
2022/03/13 03:03:18;;;;;;;13.85;10.93;;;;;;;9.48;65.17;101304.03;4987893;28;20041;-71
2022/03/13 03:05:44;;;;;;;15.75;11.85;;;;;;;9.47;65.42;101302.34;5000790;28;20701;-72
2022/03/13 03:08:09;;;;;;;15.88;11.20;;;;;;;9.46;65.23;101301.50;4990012;28;20065;-72
2022/03/13 03:10:36;;;;;;;15.85;11.63;;;;;;;9.45;65.79;101293.72;4989083;28;20041;-72
2022/03/13 03:13:02;;;;;;;16.52;12.27;;;;;;;9.42;66.11;101295.59;4989409;28;20037;-72
2022/03/13 03:15:27;;;;;;;15.13;11.80;;;;;;;9.41;66.16;101288.66;4990724;28;20030;-72
2022/03/13 03:17:53;;;;;;;15.50;12.10;;;;;;;9.40;66.56;101291.38;4991562;28;20026;-71
2022/03/13 03:20:20;;;;;;;18.75;12.50;;;;;;;9.37;67.09;101287.16;4990009;28;20027;-72
2022/03/13 03:22:47;;;;;;;17.25;12.88;;;;;;;9.36;66.48;101285.47;4989116;28;20494;-72
2022/03/13 03:25:12;;;;;;;20.13;13.65;;;;;;;9.36;66.88;101290.72;4990441;28;20034;-72
2022/03/13 03:27:40;;;;;;;18.33;12.90;;;;;;;9.33;67.47;101285.66;4995876;28;20029;-71
2022/03/13 03:30:05;;;;;;;16.98;13.25;;;;;;;9.34;67.25;101286.50;4989108;28;20131;-72
2022/03/13 03:32:31;;;;;;;18.70;13.98;;;;;;;9.33;67.22;101275.16;4988830;28;20084;-72
2022/03/13 03:34:56;;;;;;;19.10;13.25;;;;;;;9.34;67.15;101278.63;5000684;28;20688;-72
2022/03/13 03:37:21;;;;;;;16.15;12.85;;;;;;;9.34;67.43;101281.25;5003476;28;20052;-72
2022/03/13 03:39:47;;;;;;;16.52;13.10;;;;;;;9.32;67.82;101276.09;4989218;28;20105;-72
2022/03/13 03:42:12;;;;;;;19.40;13.85;;;;;;;9.30;67.79;101275.34;4989038;28;20030;-71
2022/03/13 03:44:37;;;;;;;19.17;13.50;;;;;;;9.28;67.68;101282.47;5002116;28;20053;-71
2022/03/13 03:47:03;;;;;;;19.00;13.57;;;;;;;9.28;67.91;101279.00;4994113;28;20048;-72
2022/03/13 03:49:28;;;;;;;16.98;14.35;;;;;;;9.27;68.19;101279.94;4989448;28;20034;-72
2022/03/13 03:51:53;;;;;;;18.23;14.05;;;;;;;9.26;68.46;101276.47;4988535;28;20077;-72
2022/03/13 03:54:19;;;;;;;17.63;13.90;;;;;;;9.25;68.94;101279.19;4998475;28;20030;-71
2022/03/13 03:56:44;;;;;;;20.23;14.27;;;;;;;9.25;68.73;101276.56;4999206;28;20026;-72
2022/03/13 03:59:10;;;;;;;17.95;14.95;;;;;;;9.23;69.01;101279.28;4999958;28;20045;-71
2022/03/13 04:01:43;;;;;;;19.98;15.05;;;;;;;9.23;68.76;101283.69;4990143;28;20411;-71
2022/03/13 04:04:09;;;;;;;20.25;15.48;;;;;;;9.21;69.27;101275.91;4989265;28;20049;-72
2022/03/13 04:06:39;;;;;;;18.48;14.48;;;;;;;9.18;69.30;101270.81;4989174;28;20077;-71
2022/03/13 04:09:06;;;;;;;25.38;16.08;;;;;;;9.16;69.42;101272.69;4989043;28;20109;-71
2022/03/13 04:11:33;;;;;;;22.38;16.20;;;;;;;9.16;69.03;101270.06;4996812;28;20026;-72
2022/03/13 04:13:58;;;;;;;20.88;16.30;;;;;;;9.14;69.33;101268.47;4989042;28;20037;-71
2022/03/13 04:16:24;;;;;;;22.15;16.70;;;;;;;9.10;69.29;101267.81;4996074;28;20025;-71
2022/03/13 04:18:49;;;;;;;19.95;15.80;;;;;;;9.12;69.25;101268.56;4996535;28;20053;-71
2022/03/13 04:21:15;;;;;;;22.23;16.48;;;;;;;9.12;69.76;101271.19;4988736;28;20034;-71
2022/03/13 04:23:40;;;;;;;22.60;16.88;;;;;;;9.10;69.72;101273.09;4988796;28;20438;-71
2022/03/13 04:26:05;;;;;;;26.38;17.42;;;;;;;9.07;69.96;101268.88;4988992;28;20030;-71
2022/03/13 04:28:32;;;;;;;28.70;18.58;;;;;;;9.07;69.92;101275.91;4988425;28;20026;-71
2022/03/13 04:30:59;;;;;;;24.10;18.52;;;;;;;9.06;69.25;101266.34;4989037;28;20022;-71
2022/03/13 04:33:28;;;;;;;26.80;18.88;;;;;;;9.02;69.77;101267.47;4989824;28;20026;-71
2022/03/13 04:35:56;;;;;;;26.90;19.70;;;;;;;9.01;70.55;101263.16;5003946;28;20042;-71
2022/03/13 04:38:23;;;;;;;24.48;19.48;;;;;;;8.99;70.35;101265.03;4997857;28;20026;-71
2022/03/13 04:40:53;;;;;;;28.45;20.75;;;;;;;8.96;70.89;101262.59;4998238;28;20069;-71
2022/03/13 04:43:19;;;;;;;23.95;19.73;;;;;;;8.94;70.98;101254.81;4996454;28;20034;-71
2022/03/13 04:45:44;;;;;;;28.27;20.00;;;;;;;8.92;70.63;101255.84;5002587;28;20032;-71
2022/03/13 04:48:09;;;;;;;26.45;20.60;;;;;;;8.91;70.74;101262.03;4990998;28;20114;-71
2022/03/13 04:50:35;;;;;;;27.27;20.40;;;;;;;8.88;70.34;101262.22;4992261;28;20034;-71
2022/03/13 04:53:00;;;;;;;26.33;20.25;;;;;;;8.86;70.74;101264.09;4997058;28;20390;-71
2022/03/13 04:55:26;;;;;;;25.70;19.98;;;;;;;8.87;70.93;101265.78;4996728;28;20022;-71
2022/03/13 04:57:51;;;;;;;26.08;20.50;;;;;;;8.85;70.47;101262.41;4995892;28;20383;-71
2022/03/13 05:00:17;;;;;;;24.50;19.92;;;;;;;8.81;70.89;101260.91;4990455;28;20042;-71
2022/03/13 05:02:43;;;;;;;28.75;20.40;;;;;;;8.79;70.52;101261.81;4998077;28;20050;-72
2022/03/13 05:05:09;;;;;;;27.35;20.75;;;;;;;8.76;70.79;101263.75;4997755;28;20076;-71
2022/03/13 05:07:38;;;;;;;29.92;22.15;;;;;;;8.75;70.53;101262.06;4991775;28;20050;-71
2022/03/13 05:10:05;;;;;;;29.92;21.33;;;;;;;8.72;70.37;101260.47;4990696;28;20600;-71
2022/03/13 05:12:30;;;;;;;27.50;20.55;;;;;;;8.68;70.27;101258.97;4999170;28;20025;-71
2022/03/13 05:14:56;;;;;;;27.35;20.38;;;;;;;8.65;70.02;101261.78;4998620;28;20092;-71
2022/03/13 05:17:22;;;;;;;26.52;20.23;;;;;;;8.62;69.79;101255.88;4991663;28;20029;-71
2022/03/13 05:19:47;;;;;;;25.65;20.23;;;;;;;8.59;69.70;101253.44;4994169;28;20026;-71
2022/03/13 05:22:13;;;;;;;28.33;19.45;;;;;;;8.57;68.96;101250.91;4991999;28;20075;-71
2022/03/13 05:24:38;;;;;;;26.27;19.65;;;;;;;8.54;69.62;101258.13;4990451;28;20038;-71
2022/03/13 05:27:03;;;;;;;28.55;20.90;;;;;;;8.53;69.44;101257.28;4992278;28;20030;-71
2022/03/13 05:29:29;;;;;;;25.80;19.67;;;;;;;8.51;69.41;101261.78;4991683;28;20035;-71
2022/03/13 05:31:54;;;;;;;27.15;19.48;;;;;;;8.50;69.54;101252.22;4990480;28;20077;-71
2022/03/13 05:34:19;;;;;;;29.23;19.92;;;;;;;8.48;69.05;101254.09;4990989;28;20038;-71
2022/03/13 05:36:46;;;;;;;29.95;20.45;;;;;;;8.45;68.75;101260.34;5004419;28;20054;-71
2022/03/13 05:39:11;;;;;;;27.42;19.98;;;;;;;8.44;68.94;101255.19;4993536;28;20386;-71
2022/03/13 05:41:39;;;;;;;25.65;20.08;;;;;;;8.43;69.10;101256.13;4998173;28;20034;-71
2022/03/13 05:44:05;;;;;;;26.80;20.25;;;;;;;8.42;68.90;101254.44;4997574;28;20389;-71
2022/03/13 05:46:30;;;;;;;25.02;19.55;;;;;;;8.42;69.15;101254.44;4999013;28;20026;-71
2022/03/13 05:48:56;;;;;;;26.88;19.65;;;;;;;8.41;69.15;101268.50;4991384;28;20258;-71
2022/03/13 05:51:21;;;;;;;28.67;19.92;;;;;;;8.40;69.14;101266.78;4991109;28;20034;-71
2022/03/13 05:53:46;;;;;;;26.85;20.08;;;;;;;8.39;69.03;101260.69;4991214;28;20022;-71
2022/03/13 05:56:12;;;;;;;27.20;19.52;;;;;;;8.37;68.89;101256.47;4989302;28;20026;-71
2022/03/13 05:58:37;;;;;;;26.90;19.20;;;;;;;8.36;68.23;101263.47;4990446;28;20414;-71
2022/03/13 06:01:06;;;;;;;27.92;18.92;;;;;;;8.36;68.87;101263.47;4990168;28;20081;-71
2022/03/13 06:03:32;;;;;;;27.98;19.48;;;;;;;8.34;69.27;101260.13;4991693;28;20038;-71
2022/03/13 06:06:02;;;;;;;27.00;18.63;;;;;;;8.34;68.56;101260.13;4991359;28;20026;-71
2022/03/13 06:08:27;;;;;;;25.23;18.92;;;;;;;8.34;68.23;101261.88;4991864;28;20085;-71
2022/03/13 06:10:52;;;;;;;29.40;19.48;;;;;;;8.33;68.10;101265.41;4991283;28;20030;-71
2022/03/13 06:13:19;;;;;;;25.65;19.10;;;;;;;8.33;67.99;101266.28;4990448;28;20061;-71
2022/03/13 06:15:45;;;;;;;24.88;18.35;;;;;;;8.32;67.78;101271.59;4990957;28;20088;-71
2022/03/13 06:18:11;;;;;;;26.95;18.45;;;;;;;8.29;67.79;101264.75;5000877;28;20030;-70
2022/03/13 06:20:36;;;;;;;23.98;17.77;;;;;;;8.29;67.68;101266.53;4997631;28;20041;-70
2022/03/13 06:23:02;;;;;;;25.80;18.48;;;;;;;8.27;67.26;101261.38;4991857;28;20482;-70
2022/03/13 06:25:28;;;;;;;23.13;18.58;;;;;;;8.29;67.52;101271.75;4990665;28;20053;-70
2022/03/13 06:27:53;;;;;;;23.75;18.25;;;;;;;8.26;67.67;101267.53;4989666;28;20018;-70
2022/03/13 06:30:20;;;;;;;29.33;18.52;;;;;;;8.27;66.75;101263.16;4993141;28;20078;-70
2022/03/13 06:32:52;;;;;;;27.40;18.55;;;;;;;8.25;67.45;101268.47;4997464;28;20026;-71
2022/03/13 06:35:20;;;;;;;22.57;17.27;;;;;;;8.26;67.03;101270.16;5002676;28;20034;-70
2022/03/13 06:37:46;;;;;;;25.70;18.63;;;;;;;8.27;67.12;101276.25;4990104;28;20084;-70
2022/03/13 06:40:12;;;;;;;24.67;18.30;;;;;;;8.26;67.16;101274.56;4989343;28;20491;-70
2022/03/13 06:42:38;;;;;;;26.90;18.35;;;;;;;8.26;67.11;101269.31;4988971;28;20042;-70
2022/03/13 06:45:05;;;;;;;24.45;18.38;;;;;;;8.25;67.16;101270.25;4995824;28;20394;-72
2022/03/13 06:47:31;;;;;;;23.73;17.80;;;;;;;8.26;66.33;101264.09;4995649;28;20091;-72
2022/03/13 06:49:57;;;;;;;25.73;17.75;;;;;;;8.27;66.63;101260.53;4989702;28;20034;-72
2022/03/13 06:52:22;;;;;;;24.15;17.58;;;;;;;8.29;66.34;101264.75;5000684;28;20025;-70
2022/03/13 06:54:48;;;;;;;21.00;17.05;;;;;;;8.28;66.59;101262.22;4996296;28;20083;-72
2022/03/13 06:57:15;;;;;;;24.60;17.52;;;;;;;8.28;66.30;101272.69;4994770;28;20490;-72
2022/03/13 06:59:41;;;;;;;26.15;17.90;;;;;;;8.28;66.01;101276.16;4993600;28;20029;-72
2022/03/13 07:02:07;;;;;;;26.60;17.98;;;;;;;8.28;66.29;101276.16;4989452;28;20053;-72
2022/03/13 07:04:32;;;;;;;26.33;18.23;;;;;;;8.28;66.12;101267.47;4990613;28;20026;-72
2022/03/13 07:06:58;;;;;;;23.58;18.13;;;;;;;8.29;65.93;101263.91;4990028;28;20018;-70
2022/03/13 07:09:25;;;;;;;26.15;18.55;;;;;;;8.30;66.13;101261.19;4990268;28;20023;-70
2022/03/13 07:11:50;;;;;;;23.77;17.70;;;;;;;8.34;65.62;101267.13;4977275;28;20034;-72
2022/03/13 07:14:16;;;;;;;23.90;17.38;;;;;;;8.33;65.07;101270.66;5008312;28;20030;-70
2022/03/13 07:16:42;;;;;;;25.45;17.42;;;;;;;8.34;65.47;101269.75;4989332;28;20056;-70
2022/03/13 07:19:07;;;;;;;23.45;18.00;;;;;;;8.35;66.29;101271.44;4993936;28;20072;-70
2022/03/13 07:21:32;;;;;;;23.58;17.70;;;;;;;8.35;65.70;101269.66;4989015;28;20126;-70
2022/03/13 07:23:58;;;;;;;23.98;18.10;;;;;;;8.36;66.42;101262.66;4987118;28;20089;-72
2022/03/13 07:26:26;;;;;;;24.65;17.95;;;;;;;8.39;66.46;101265.09;4989476;28;20118;-74
2022/03/13 07:28:51;;;;;;;24.10;18.25;;;;;;;8.39;66.01;101259.84;4988391;28;20026;-72
2022/03/13 07:31:17;;;;;;;23.80;18.05;;;;;;;8.41;65.99;101263.25;4993249;28;20030;-72
2022/03/13 07:33:42;;;;;;;24.10;17.95;;;;;;;8.43;65.61;101264.84;4988062;28;20058;-72
2022/03/13 07:36:08;;;;;;;24.83;16.92;;;;;;;8.46;65.73;101261.19;4988992;28;20045;-72
2022/03/13 07:38:33;;;;;;;23.48;17.63;;;;;;;8.45;65.68;101268.22;4989171;28;20046;-72
2022/03/13 07:40:58;;;;;;;24.38;18.17;;;;;;;8.47;65.35;101258.47;4989912;28;20038;-70
2022/03/13 07:43:24;;;;;;;22.23;17.73;;;;;;;8.49;65.13;101263.63;4989472;28;20126;-70
2022/03/13 07:45:50;;;;;;;27.17;17.83;;;;;;;8.52;65.08;101263.47;4992638;28;20538;-70
2022/03/13 07:48:15;;;;;;;25.50;17.98;;;;;;;8.54;65.22;101253.72;4995853;28;20030;-68
2022/03/13 07:50:41;;;;;;;23.30;17.27;;;;;;;8.56;64.59;101257.09;4988961;28;20030;-69
2022/03/13 07:53:06;;;;;;;21.92;17.10;;;;;;;8.59;64.79;101261.31;4989981;28;20053;-69
2022/03/13 07:55:31;;;;;;;24.17;17.83;;;;;;;8.62;64.45;101261.97;4989019;28;20058;-69
2022/03/13 07:57:57;;;;;;;24.52;18.10;;;;;;;8.65;64.60;101263.56;4989573;28;20455;-70
2022/03/13 08:00:23;;;;;;;24.55;17.35;;;;;;;8.67;64.80;101262.53;5007716;28;20818;-70
2022/03/13 08:02:49;;;;;;;23.60;17.75;;;;;;;8.70;64.75;101270.22;5008007;28;20057;-70
2022/03/13 08:05:16;;;;;;;24.40;18.00;;;;;;;8.74;64.39;101268.25;5008919;28;20106;-70
2022/03/13 08:07:43;;;;;;;25.25;18.63;;;;;;;8.77;64.25;101266.28;5010374;28;20496;-71
2022/03/13 08:10:10;;;;;;;24.67;18.27;;;;;;;8.82;63.82;101266.06;5013416;28;20036;-72
2022/03/13 08:12:35;;;;;;;24.80;18.00;;;;;;;8.86;64.15;101262.31;5007516;28;20042;-71
2022/03/13 08:15:00;;;;;;;26.58;17.98;;;;;;;8.91;63.49;101256.78;5013217;28;20026;-71
2022/03/13 08:17:26;;;;;;;25.95;17.95;;;;;;;8.93;63.75;101253.13;5013684;28;20025;-71
2022/03/13 08:19:54;;;;;;;23.58;17.52;;;;;;;9.00;63.73;101258.84;5012231;28;20048;-71
2022/03/13 08:22:19;;;;;;;28.20;18.35;;;;;;;9.05;63.24;101262.03;5012126;28;20033;-71
2022/03/13 08:24:45;;;;;;;23.60;18.05;;;;;;;9.08;63.17;101260.06;5012200;28;20026;-71
2022/03/13 08:27:10;;;;;;;23.63;18.02;;;;;;;9.13;63.36;101251.88;5026422;28;20022;-71
2022/03/13 08:29:35;;;;;;;24.02;17.50;;;;;;;9.18;63.37;101255.06;5007457;28;20029;-71
2022/03/13 08:32:01;;;;;;;23.08;18.27;;;;;;;9.22;63.41;101251.34;5011722;28;20120;-71
2022/03/13 08:34:29;;;;;;;26.75;18.25;;;;;;;9.28;63.10;101258.00;4974624;28;20423;-71
2022/03/13 08:36:56;;;;;;;24.02;18.15;;;;;;;9.33;62.91;101250.66;4992041;28;20046;-71
2022/03/13 08:39:21;;;;;;;24.60;18.10;;;;;;;9.38;62.79;101257.31;4992645;28;20034;-71
2022/03/13 08:41:47;;;;;;;24.48;17.63;;;;;;;9.45;63.03;101262.19;5011005;28;20476;-71
2022/03/13 08:44:13;;;;;;;25.95;18.17;;;;;;;9.51;62.63;101251.28;5017545;28;20433;-71
2022/03/13 08:46:39;;;;;;;24.58;17.50;;;;;;;9.58;62.14;101250.81;5009838;28;20053;-71
2022/03/13 08:49:04;;;;;;;23.35;18.35;;;;;;;9.65;62.32;101253.91;5011623;28;20026;-71
2022/03/13 08:51:30;;;;;;;26.13;18.30;;;;;;;9.75;62.25;101249.75;5010883;28;20501;-71
2022/03/13 08:53:56;;;;;;;26.13;18.50;;;;;;;9.82;61.89;101248.41;5011759;28;20549;-72
2022/03/13 08:56:21;;;;;;;27.23;17.98;;;;;;;9.90;61.57;101237.41;5012834;28;20438;-71
2022/03/13 08:58:47;;;;;;;24.77;18.35;;;;;;;10.00;61.05;101241.09;5018896;28;20162;-72
2022/03/13 09:01:14;;;;;;;27.80;19.02;;;;;;;10.10;62.17;101238.75;5031369;28;20777;-72
2022/03/13 09:03:39;;;;;;;24.42;18.60;;;;;;;10.18;61.00;101231.19;5032032;28;20381;-71
2022/03/13 09:06:05;;;;;;;26.58;17.52;;;;;;;10.28;60.51;101238.38;5031773;28;20029;-71
2022/03/13 09:08:30;;;;;;;25.52;18.25;;;;;;;10.39;60.46;101240.28;5031542;28;20049;-73
2022/03/13 09:10:56;;;;;;;25.85;19.02;;;;;;;10.50;60.24;101236.97;5025517;28;20671;-73
2022/03/13 09:13:21;;;;;;;23.77;18.38;;;;;;;10.60;60.19;101230.97;5024593;28;20029;-72
2022/03/13 09:15:47;;;;;;;28.73;18.27;;;;;;;10.71;59.38;101232.03;5031317;28;20486;-72
2022/03/13 09:18:13;;;;;;;27.08;17.80;;;;;;;10.82;59.99;101232.16;5011664;28;20055;-73
2022/03/13 09:20:39;;;;;;;23.35;18.35;;;;;;;10.90;58.51;101230.66;5011002;28;20026;-72
2022/03/13 09:23:04;;;;;;;23.02;18.00;;;;;;;11.05;58.69;101225.28;5010402;28;20364;-71
2022/03/13 09:25:31;;;;;;;23.05;17.88;;;;;;;11.17;57.92;101227.03;5011095;28;20037;-72
2022/03/13 09:27:56;;;;;;;25.00;18.40;;;;;;;11.30;58.29;101234.00;5009669;28;20900;-73
2022/03/13 09:30:21;;;;;;;24.63;17.38;;;;;;;11.44;57.63;101221.63;5010648;28;20101;-73
2022/03/13 09:32:47;;;;;;;23.55;15.85;;;;;;;11.55;57.03;101211.16;5010902;28;20030;-73
2022/03/13 09:35:12;;;;;;;22.45;17.38;;;;;;;11.64;57.97;101221.03;5011090;28;20026;-73
2022/03/13 09:37:39;;;;;;;22.40;17.13;;;;;;;11.76;56.47;101225.41;5010120;28;20061;-73
2022/03/13 09:40:05;;;;;;;21.98;17.00;;;;;;;11.88;57.10;101216.63;5009677;28;20546;-72
2022/03/13 09:42:31;;;;;;;22.13;17.02;;;;;;;11.98;57.12;101223.84;5016598;28;20551;-73
2022/03/13 09:44:59;;;;;;;22.20;15.55;;;;;;;12.09;56.02;101221.28;5019981;28;20034;-72
2022/03/13 09:47:25;;;;;;;20.58;15.77;;;;;;;12.21;55.91;101223.00;5011947;28;20022;-72
2022/03/13 09:49:51;;;;;;;21.02;15.85;;;;;;;12.30;54.75;101218.84;5030375;28;20101;-72
2022/03/13 09:52:16;;;;;;;22.23;16.05;;;;;;;12.39;55.17;101224.25;5027418;28;20443;-72
2022/03/13 09:54:42;;;;;;;21.33;16.70;;;;;;;12.52;55.42;101216.28;5010551;28;20084;-72
2022/03/13 09:57:07;;;;;;;19.73;16.02;;;;;;;12.62;54.98;101226.97;5010116;28;20033;-72
2022/03/13 09:59:34;;;;;;;20.05;14.95;;;;;;;12.73;55.24;101226.97;5012715;28;20033;-72
2022/03/13 10:02:02;;;;;;;20.23;15.68;;;;;;;12.81;54.31;101220.16;5031090;28;20413;-72
2022/03/13 10:04:28;;;;;;;20.20;15.20;;;;;;;12.95;54.66;101220.88;5029453;28;20025;-72
2022/03/13 10:07:04;;;;;;;20.67;15.10;;;;;;;13.06;54.56;101219.06;5029734;28;20026;-73
2022/03/13 10:09:32;;;;;;;19.13;14.65;;;;;;;13.17;53.51;101205.88;5031120;28;20033;-73
2022/03/13 10:12:12;;;;;;;19.67;15.13;;;;;;;13.28;53.80;101209.50;5016055;28;20038;-72
2022/03/13 10:15:05;;;;;;;18.25;15.15;;;;;;;13.37;54.06;101206.13;5030882;28;20033;-72
2022/03/13 10:17:32;;;;;;;21.40;14.53;;;;;;;13.48;52.57;101200.81;5016290;28;20050;-72
2022/03/13 10:20:27;;;;;;;19.48;14.23;;;;;;;13.62;53.37;101200.56;5009906;28;20669;-72
2022/03/13 10:23:02;;;;;;;17.98;13.73;;;;;;;13.72;52.89;101185.59;5009944;28;20048;-72
2022/03/13 10:25:35;;;;;;;19.40;14.07;;;;;;;13.85;52.76;101188.09;5009549;28;20030;-72
2022/03/13 10:28:21;;;;;;;15.63;13.02;;;;;;;13.97;52.27;101194.16;5009514;28;20029;-72
2022/03/13 10:31:05;;;;;;;17.02;13.55;;;;;;;14.14;51.40;101180.38;5009315;28;20068;-73
2022/03/13 10:33:43;;;;;;;19.17;13.02;;;;;;;14.29;51.46;101181.72;5009445;28;20041;-73
2022/03/13 10:36:09;;;;;;;16.45;13.35;;;;;;;14.35;49.74;101177.72;5009787;28;20053;-71
2022/03/13 10:38:35;;;;;;;16.67;13.45;;;;;;;14.42;49.50;101178.91;5010079;28;20537;-73
2022/03/13 10:41:08;;;;;;;18.33;13.45;;;;;;;14.47;49.51;101175.91;5007908;28;20100;-73
2022/03/13 10:43:35;;;;;;;17.70;13.02;;;;;;;14.53;49.29;101181.50;5008759;28;20021;-73
2022/03/13 10:46:01;;;;;;;15.27;12.15;;;;;;;14.63;49.02;101181.56;5009323;28;20021;-73
2022/03/13 10:48:28;;;;;;;15.20;12.48;;;;;;;14.70;48.90;101177.41;5009056;28;20080;-73
2022/03/13 10:51:01;;;;;;;16.75;12.30;;;;;;;14.82;48.91;101180.84;5009470;28;20513;-72
2022/03/13 10:53:27;;;;;;;16.85;12.90;;;;;;;14.94;48.99;101170.00;5009377;28;20049;-73
2022/03/13 10:56:07;;;;;;;15.43;12.75;;;;;;;14.97;48.99;101169.72;5010550;28;20021;-71
2022/03/13 10:58:35;;;;;;;16.77;12.35;;;;;;;15.01;48.12;101165.84;5010588;28;20050;-73
2022/03/13 11:01:11;;;;;;;14.68;11.82;;;;;;;15.05;48.89;101172.53;5008260;28;20371;-73
2022/03/13 11:03:52;;;;;;;13.93;11.95;;;;;;;15.04;48.11;101170.88;5010433;28;20026;-72
2022/03/13 11:06:19;;;;;;;14.70;11.85;;;;;;;15.13;47.77;101165.72;5010042;28;20084;-72
2022/03/13 11:08:44;;;;;;;13.32;11.65;;;;;;;15.26;48.35;101153.91;5009478;28;20022;-73
2022/03/13 11:11:13;;;;;;;14.45;11.88;;;;;;;15.32;47.42;101158.69;5017841;28;20033;-71
2022/03/13 11:13:40;;;;;;;17.05;11.98;;;;;;;15.39;47.08;101153.66;5013631;28;20483;-73
2022/03/13 11:16:09;;;;;;;15.82;11.23;;;;;;;15.46;46.41;101146.81;5011032;28;20039;-71